Latest Weather Observations for Oodnadatta

IDS60801

Issued at 4:02 pm CDT Sunday 1 February 2015 (issued every 30 minutes, with the page automatically refreshed every 10 minutes)

About weather observations | Map of weather stations | Latest weather observations for SA | Other Formats
Station Details ID: 017043 Name: OODNADATTA AIRPORT Lat: -27.56 Lon: 135.45 Height: 116.5 m
Data from the previous 72 hours. | See also: Recent months at Oodnadatta
Date/Time
CDT
Temp
°C
App
Temp
°C
Dew
Point
Rel
Hum
%
Delta-T
°C
Wind Press
QNH
hPa
Press
MSL
hPa
Rain
since 9 am
mm
Dir
 
Spd
km/h
Gust
km/h
Spd
kts
Gust
kts
01/04:00pm 35.8 31.5 5.1 15 16.6 SSE 17 32 9 17 1010.9 - 0.0
01/03:30pm 35.0 30.6 4.5 15 16.3 SSE 17 28 9 15 1011.2 - 0.0
01/03:00pm 34.2 30.6 4.8 16 15.7 S 13 24 7 13 1011.6 1010.8 0.0
01/02:30pm 33.3 29.7 5.0 17 15.1 S 13 32 7 17 1011.8 - 0.0
01/02:00pm 33.1 28.5 6.4 19 14.5 ESE 20 26 11 14 1012.2 - 0.0
01/01:30pm 32.2 27.6 6.4 20 14.0 SSE 20 33 11 18 1012.5 - 0.0
01/01:00pm 31.6 26.3 6.6 21 13.5 SE 24 35 13 19 1012.9 - 0.0
01/12:30pm 31.3 25.8 7.7 23 13.0 SE 26 35 14 19 1013.0 - 0.0
01/12:00pm 31.4 26.3 7.8 23 13.0 ESE 24 33 13 18 1013.2 1012.4 0.0
01/11:30am 29.9 23.9 7.2 24 12.3 SSE 28 35 15 19 1013.5 - 0.0
01/11:00am 28.9 23.2 6.9 25 11.8 SE 26 33 14 18 1013.6 - 0.0
01/10:30am 28.0 21.5 6.7 26 11.3 SE 30 37 16 20 1013.6 - 0.0
01/10:00am 27.2 21.2 7.1 28 10.7 SE 28 35 15 19 1013.6 - 0.0
01/09:30am 26.1 19.3 6.7 29 10.2 SE 32 37 17 20 1013.3 - 0.0
01/09:00am 25.0 18.5 6.7 31 9.6 SE 30 37 16 20 1013.0 1012.2 0.0
01/08:30am 24.2 18.3 6.0 31 9.4 SE 26 33 14 18 1012.9 - 0.0
01/08:00am 24.0 18.9 5.8 31 9.3 SE 22 28 12 15 1012.3 - 0.0
01/07:30am 23.5 19.6 5.4 31 9.2 SSE 15 20 8 11 1011.9 - 0.0
01/07:00am 23.3 18.6 5.2 31 9.1 SE 19 26 10 14 1011.4 - 0.0
01/06:30am 24.0 18.3 4.9 29 9.6 ESE 24 30 13 16 1010.6 - 0.0
01/06:00am 24.6 18.8 4.4 27 10.1 ESE 24 32 13 17 1010.3 1009.6 0.0
01/05:30am 25.4 20.9 4.0 25 10.7 ESE 17 22 9 12 1010.1 - 0.0
01/05:00am 25.6 22.4 2.9 23 11.1 SE 9 13 5 7 1010.0 - 0.0
01/04:30am 24.6 22.9 2.1 23 10.8 CALM 0 6 0 3 1009.5 - 0.0
01/04:00am 25.8 20.6 2.5 22 11.4 SSE 19 33 10 18 1009.3 - 0.0
01/03:30am 24.7 22.0 2.8 24 10.6 E 6 7 3 4 1008.9 - 0.0
01/03:00am 24.7 21.1 2.8 24 10.7 E 11 13 6 7 1009.1 1008.3 0.0
01/02:30am 25.5 21.8 2.2 22 11.3 E 11 13 6 7 1009.2 - 0.0
01/02:00am 26.4 22.3 2.3 21 11.7 E 13 15 7 8 1009.3 - 0.0
01/01:30am 28.1 23.6 2.3 19 12.7 ENE 15 17 8 9 1009.2 - 0.0
01/01:00am 28.8 24.7 2.1 18 13.2 ENE 13 17 7 9 1009.4 - 0.0
01/12:30am 29.6 24.7 2.0 17 13.7 ENE 17 20 9 11 1009.5 - 0.0
01/12:00am 30.4 25.2 3.4 18 13.8 ENE 20 24 11 13 1009.6 1008.8 0.0
 
Date/Time
CDT
Temp
°C
App
Temp
°C
Dew
Point
Rel
Hum
%
Delta-T
°C
Wind Press
QNH
hPa
Press
MSL
hPa
Rain
since 9 am
mm
Dir
 
Spd
km/h
Gust
km/h
Spd
kts
Gust
kts
31/11:30pm 30.8 25.5 2.9 17 14.1 ENE 20 24 11 13 1009.6 - 0.0
31/11:00pm 31.6 25.1 2.7 16 14.7 ENE 26 33 14 18 1009.5 - 0.0
31/10:30pm 32.3 24.5 1.4 14 15.4 E 32 39 17 21 1009.5 - 0.0
31/10:08pm 32.8 23.9 0.8 13 15.9 E 37 44 20 24 1009.3 - 0.0
31/10:00pm 31.3 26.6 0.6 14 15.0 ESE 15 17 8 9 1009.1 - 0.0
31/09:30pm 32.7 28.4 0.7 13 15.9 E 13 15 7 8 1008.9 - 0.0
31/09:00pm 34.2 29.3 -0.4 11 17.0 E 15 17 8 9 1008.6 1007.8 0.0
31/08:30pm 35.4 29.7 -0.8 10 17.8 ESE 19 24 10 13 1008.4 - 0.0
31/08:00pm 36.5 30.9 0.0 10 18.3 ESE 19 22 10 12 1007.9 - 0.0
31/07:30pm 37.3 31.4 -0.9 9 19.0 E 20 32 11 17 1007.5 - 0.0
31/07:00pm 37.8 32.9 -0.5 9 19.2 S 15 26 8 14 1007.3 - 0.0
31/06:30pm 37.5 34.1 -0.7 9 19.0 WNW 7 17 4 9 1007.2 - 0.0
31/06:00pm 37.5 34.3 0.7 10 18.8 ESE 7 17 4 9 1007.3 1006.5 0.0
31/05:30pm 37.9 33.4 -0.4 9 19.2 SSW 13 26 7 14 1007.5 - 0.0
31/05:00pm 38.4 34.5 1.4 10 19.2 ENE 11 20 6 11 1007.8 - 0.0
31/04:30pm 38.6 33.3 1.6 10 19.2 E 19 28 10 15 1007.9 - 0.0
31/04:00pm 37.2 34.2 0.5 10 18.6 N 6 15 3 8 1008.3 - 0.0
31/03:30pm 36.7 32.6 0.1 10 18.4 SSE 11 28 6 15 1008.8 - 0.0
31/03:00pm 37.1 33.7 1.8 11 18.3 SSW 9 19 5 10 1009.2 1008.4 0.0
31/02:30pm 36.4 31.9 2.4 12 17.7 SW 15 24 8 13 1009.5 - 0.0
31/02:00pm 35.3 31.7 2.7 13 16.9 N 11 17 6 9 1009.9 - 0.0
31/01:30pm 35.4 32.2 2.8 13 17.0 ENE 9 15 5 8 1010.2 - 0.0
31/01:00pm 35.4 32.2 2.8 13 17.0 N 9 20 5 11 1010.5 - 0.0
31/12:30pm 34.6 30.3 3.2 14 16.4 NNE 15 24 8 13 1010.9 - 0.0
31/12:00pm 34.1 29.3 2.8 14 16.2 NE 17 26 9 14 1011.1 1010.3 0.0
31/11:30am 33.1 28.6 2.0 14 15.8 NE 15 22 8 12 1011.3 - 0.0
31/11:00am 32.8 28.0 2.8 15 15.4 NE 17 24 9 13 1011.4 - 0.0
31/10:30am 32.0 26.5 2.1 15 15.1 NE 20 30 11 16 1011.4 - 0.0
31/10:00am 31.7 25.6 2.8 16 14.7 NE 24 30 13 16 1011.3 - 0.0
31/09:30am 30.8 25.1 2.9 17 14.1 NE 22 28 12 15 1011.1 - 0.0
31/09:00am 29.7 23.6 2.9 18 13.5 NE 24 30 13 16 1010.7 1010.0 0.0
31/08:30am 28.3 23.0 3.2 20 12.6 NE 20 24 11 13 1010.4 - 0.0
31/08:00am 26.7 21.9 4.5 24 11.3 ENE 19 24 10 13 1010.4 - 0.0
31/07:30am 23.5 21.2 5.9 32 9.0 ENE 7 11 4 6 1010.1 - 0.0
31/07:00am 23.5 20.2 6.3 33 8.8 ENE 13 17 7 9 1009.5 - 0.0
31/06:30am 23.1 20.1 6.0 33 8.7 ENE 11 15 6 8 1009.2 - 0.0
31/06:00am 23.6 21.4 6.0 32 9.0 E 7 11 4 6 1009.0 - 0.0
31/05:30am 24.7 22.4 5.5 29 9.8 E 7 9 4 5 1008.7 - 0.0
31/05:00am 25.3 20.9 5.0 27 10.3 ESE 17 20 9 11 1008.4 - 0.0
31/04:30am 25.3 20.4 5.0 27 10.3 ESE 20 26 11 14 1008.2 - 0.0
31/04:00am 24.2 20.5 4.6 28 9.8 ESE 13 15 7 8 1008.2 - 0.0
31/03:30am 25.6 21.8 4.1 25 10.8 E 13 15 7 8 1008.1 - 0.0
31/03:00am 27.1 22.9 3.6 22 11.8 E 15 17 8 9 1008.3 1007.5 0.0
31/02:30am 27.8 23.3 4.2 22 12.0 E 17 19 9 10 1008.4 - 0.0
31/02:00am 28.2 24.1 4.5 22 12.2 ENE 15 19 8 10 1008.6 - 0.0
31/01:30am 29.0 24.2 4.5 21 12.6 E 19 20 10 11 1008.9 - 0.0
31/01:00am 29.4 24.6 4.8 21 12.8 ENE 19 20 10 11 1009.0 - 0.0
31/12:30am 29.9 25.0 5.2 21 12.9 ENE 20 24 11 13 1008.9 - 0.0
31/12:00am 30.3 25.0 4.9 20 13.3 E 22 30 12 16 1008.9 1008.1 0.0
 
Date/Time
CDT
Temp
°C
App
Temp
°C
Dew
Point
Rel
Hum
%
Delta-T
°C
Wind Press
QNH
hPa
Press
MSL
hPa
Rain
since 9 am
mm
Dir
 
Spd
km/h
Gust
km/h
Spd
kts
Gust
kts
30/11:30pm 30.5 25.3 5.7 21 13.2 E 22 26 12 14 1009.0 - 0.0
30/11:00pm 30.9 26.3 6.7 22 13.1 E 20 24 11 13 1008.9 - 0.0
30/10:30pm 31.8 25.7 6.8 21 13.6 E 28 37 15 20 1008.5 - 0.0
30/10:00pm 32.4 25.7 7.3 21 13.8 E 32 39 17 21 1007.9 - 0.0
30/09:59pm 32.5 25.6 7.4 21 13.8 E 33 39 18 21 1007.8 - 0.0
30/09:30pm 32.3 28.4 3.3 16 14.9 ESE 13 15 7 8 1007.6 - 0.0
30/09:00pm 33.3 29.4 3.2 15 15.6 ESE 13 17 7 9 1007.5 1006.7 0.0
30/08:30pm 34.8 30.1 3.4 14 16.4 SE 17 20 9 11 1007.3 - 0.0
30/08:00pm 36.0 31.7 3.3 13 17.2 SE 15 17 8 9 1007.0 - 0.0
30/07:30pm 36.5 31.3 3.7 13 17.4 E 20 28 11 15 1006.8 - 0.0
30/07:00pm 36.7 32.9 3.8 13 17.5 S 13 22 7 12 1006.7 - 0.0
30/06:30pm 36.3 33.2 3.5 13 17.3 SE 9 15 5 8 1006.7 - 0.0
30/06:00pm 36.7 33.5 4.9 14 17.3 ESE 11 20 6 11 1006.7 1005.9 0.0
30/05:30pm 37.7 35.2 4.6 13 17.9 NNW 7 20 4 11 1006.9 - 0.0
30/05:00pm 36.8 32.0 4.9 14 17.3 ESE 19 22 10 12 1007.1 - 0.0
30/04:30pm 36.9 33.7 5.0 14 17.3 E 11 19 6 10 1007.4 - 0.0
30/04:00pm 36.7 33.5 4.9 14 17.2 E 11 19 6 10 1007.8 - 0.0
30/03:30pm 36.3 34.0 5.5 15 16.8 NNW 7 15 4 8 1008.2 - 0.0
30/03:00pm 35.6 31.4 5.9 16 16.3 SE 17 24 9 13 1008.8 1008.0 0.0
30/02:30pm 36.2 32.1 6.4 16 16.5 E 17 24 9 13 1009.2 - 0.0
30/02:00pm 36.4 34.1 7.4 17 16.3 SE 9 17 5 9 1009.7 - 0.0
30/01:30pm 34.3 29.7 6.6 18 15.2 SSE 20 26 11 14 1010.0 - 0.0
30/01:00pm 34.4 30.2 7.5 19 15.0 ESE 19 28 10 15 1010.5 - 0.0
30/12:30pm 34.2 32.2 7.3 19 14.9 SE 7 20 4 11 1010.9 - 0.0
30/12:00pm 33.5 30.5 7.5 20 14.4 ENE 13 24 7 13 1011.2 1010.4 0.0
30/11:30am 33.5 31.6 7.5 20 14.4 E 7 24 4 13 1011.4 - 0.0
30/11:00am 31.2 28.8 7.0 22 13.2 ENE 9 17 5 9 1011.8 - 0.0
30/10:30am 30.7 27.4 6.6 22 13.0 E 13 19 7 10 1011.8 - 0.0
30/10:00am 29.5 25.5 6.8 24 12.2 ESE 17 22 9 12 1011.6 - 0.0
30/09:30am 27.4 23.1 3.2 21 12.1 SE 15 19 8 10 1011.3 - 0.0
30/09:00am 26.7 22.4 3.2 22 11.7 S 15 19 8 10 1010.9 1010.1 0.0
30/08:30am 25.3 21.7 2.7 23 11.0 NNW 11 15 6 8 1010.9 - 0.0
30/08:00am 22.0 19.0 4.1 31 8.7 NNW 9 11 5 6 1010.6 - 0.0
30/07:30am 21.8 18.8 3.9 31 8.7 NNW 9 11 5 6 1010.5 - 0.0
30/07:00am 21.2 18.6 4.3 33 8.2 NNW 7 9 4 5 1010.2 - 0.0
30/06:30am 21.6 20.3 4.2 32 8.5 CALM 0 0 0 0 1009.9 - 0.0
30/06:00am 20.9 17.9 4.0 33 8.2 NNW 9 11 5 6 1009.7 1008.9 0.0
30/05:30am 21.9 19.4 4.5 32 8.6 NNW 7 9 4 5 1009.5 - 0.0
30/05:00am 21.9 19.0 4.5 32 8.6 NNW 9 11 5 6 1009.2 - 0.0
30/04:30am 21.5 18.2 4.6 33 8.3 NNW 11 13 6 7 1009.2 - 0.0
30/04:00am 21.9 19.0 4.5 32 8.6 NNW 9 11 5 6 1009.1 - 0.0
30/03:30am 22.5 19.6 4.5 31 8.9 NNW 9 13 5 7 1009.4 - 0.0
30/03:00am 23.8 21.3 4.7 29 9.6 ESE 7 9 4 5 1009.5 1008.7 0.0
30/02:30am 24.1 21.6 4.5 28 9.8 ESE 7 9 4 5 1009.7 - 0.0
30/02:00am 24.7 22.2 5.0 28 10.0 ESE 7 9 4 5 1009.7 - 0.0
30/01:30am 24.8 21.5 4.5 27 10.2 ESE 11 13 6 7 1009.9 - 0.0
30/12:30am 26.8 22.3 4.0 23 11.5 E 17 19 9 10 1010.1 - 0.0
30/12:00am 27.5 22.9 3.9 22 11.9 E 17 20 9 11 1010.2 1009.5 0.0
 
Date/Time
CDT
Temp
°C
App
Temp
°C
Dew
Point
Rel
Hum
%
Delta-T
°C
Wind Press
QNH
hPa
Press
MSL
hPa
Rain
since 9 am
mm
Dir
 
Spd
km/h
Gust
km/h
Spd
kts
Gust
kts
29/11:30pm 28.0 23.7 3.0 20 12.5 E 15 17 8 9 1010.2 - 0.0
29/11:00pm 29.3 24.1 2.5 18 13.4 E 19 24 10 13 1010.2 - 0.0
29/10:30pm 29.7 24.7 3.6 19 13.3 E 19 22 10 12 1010.0 - 0.0
29/10:00pm 30.7 24.8 3.7 18 13.9 E 24 30 13 16 1009.8 - 0.0
29/09:30pm 30.5 25.4 1.0 15 14.5 ESE 17 19 9 10 1009.5 - 0.0
29/09:00pm 31.5 26.0 0.8 14 15.1 ESE 19 22 10 12 1009.3 1008.5 0.0
29/08:30pm 32.7 27.0 -0.4 12 16.1 SE 19 24 10 13 1009.1 - 0.0
29/08:00pm 33.7 27.8 -0.8 11 16.8 ESE 20 26 11 14 1008.8 - 0.0
29/07:30pm 34.6 28.8 -1.4 10 17.4 SSE 19 28 10 15 1008.7 - 0.0
29/07:00pm 35.0 30.8 -1.1 10 17.6 SSE 11 20 6 11 1008.6 - 0.0
29/06:30pm 35.1 28.8 -1.1 10 17.7 SE 22 33 12 18 1008.4 - 0.0
29/06:00pm 35.4 29.1 -0.8 10 17.8 SSE 22 30 12 16 1008.4 1007.6 0.0
29/05:30pm 35.4 30.1 -0.8 10 17.8 SE 17 30 9 16 1008.5 - 0.0
29/05:00pm 34.8 28.8 -1.3 10 17.5 ESE 20 33 11 18 1008.7 - 0.0
29/04:30pm 34.5 29.3 -0.2 11 17.1 SE 17 30 9 16 1008.9 - 0.0

Other Formats:

Comma delimited format used in spreadsheet applications
http://www.bom.gov.au/fwo/IDS60801/IDS60801.94476.axf

JavaScript Object Notation format (JSON) in row-major order
http://www.bom.gov.au/fwo/IDS60801/IDS60801.94476.json